createdAt,value
2019-03-01T00:00:20.430Z,96424.62
2019-03-01T00:02:50.410Z,96422.84
2019-03-01T00:05:43.626Z,96422.12
2019-03-01T00:08:18.957Z,96424.62
2019-03-01T00:11:41.984Z,96426.03
2019-03-01T00:14:40.727Z,96420.84
2019-03-01T00:17:31.358Z,96422.62
2019-03-01T00:20:36.128Z,96423.38
2019-03-01T00:23:28.454Z,96426.78
2019-03-01T00:26:31.935Z,96428.91
2019-03-01T00:29:14.650Z,96428.92
2019-03-01T00:32:32.305Z,96435.63
2019-03-01T00:35:51.428Z,96429.27
2019-03-01T00:39:09.005Z,96432.34
2019-03-01T00:42:04.624Z,96427.05
2019-03-01T00:44:42.101Z,96431.17
2019-03-01T00:47:12.071Z,96428.58
2019-03-01T00:49:42.567Z,96424.46
2019-03-01T00:52:12.454Z,96427.28
2019-03-01T00:54:42.445Z,96425.77
2019-03-01T00:57:12.341Z,96431.06
2019-03-01T00:59:42.234Z,96427.86
2019-03-01T01:02:12.199Z,96429.27
2019-03-01T01:04:42.247Z,96431.63
2019-03-01T01:07:12.731Z,96435.63
2019-03-01T01:09:42.609Z,96441.42
2019-03-01T01:12:12.938Z,96438.71
2019-03-01T01:14:42.873Z,96439.29
2019-03-01T01:17:13.168Z,96441.66
2019-03-01T01:19:43.265Z,96440.74
2019-03-01T01:22:13.064Z,96437.70
2019-03-01T01:24:42.829Z,96442.50
2019-03-01T01:27:12.767Z,96442.50
2019-03-01T01:29:42.605Z,96441.92
2019-03-01T01:32:12.370Z,96443.11
2019-03-01T01:34:42.299Z,96436.52
2019-03-01T01:37:12.277Z,96438.76
2019-03-01T01:39:42.166Z,96438.27
2019-03-01T01:42:11.886Z,96439.94
2019-03-01T01:44:41.919Z,96447.94
2019-03-01T01:47:12.075Z,96446.03
2019-03-01T01:49:41.752Z,96445.35
2019-03-01T01:52:11.474Z,96444.17
2019-03-01T01:54:41.345Z,96441.20
2019-03-01T01:57:11.254Z,96448.63
2019-03-01T01:59:40.997Z,96447.22
2019-03-01T02:02:11.038Z,96447.45
2019-03-01T02:04:41.068Z,96446.04
2019-03-01T02:07:10.913Z,96449.13
2019-03-01T02:09:40.669Z,96455.22
2019-03-01T02:12:11.096Z,96457.47
2019-03-01T02:14:40.918Z,96454.41
2019-03-01T02:17:10.918Z,96458.64
2019-03-01T02:19:40.790Z,96453.94
2019-03-01T02:22:10.925Z,96455.34
2019-03-01T02:24:40.832Z,96457.59
2019-03-01T02:27:30.505Z,96461.23
2019-03-01T02:30:01.685Z,96457.69
2019-03-01T02:32:37.201Z,96461.11
2019-03-01T02:35:09.344Z,96457.11
2019-03-01T02:37:39.090Z,96458.98
2019-03-01T02:40:10.278Z,96464.06
2019-03-01T02:42:40.403Z,96459.95
2019-03-01T02:45:12.546Z,96463.34
2019-03-01T02:47:42.666Z,96459.58
2019-03-01T02:50:12.564Z,96457.69
2019-03-01T02:52:42.919Z,96463.00
2019-03-01T02:55:13.951Z,96460.52
2019-03-01T02:57:43.820Z,96462.99
2019-03-01T03:00:19.109Z,96462.52
2019-03-01T03:02:49.198Z,96469.36
2019-03-01T03:05:19.326Z,96471.48
2019-03-01T03:08:00.451Z,96474.09
2019-03-01T03:10:30.722Z,96468.77
2019-03-01T03:13:03.423Z,96466.18
2019-03-01T03:15:58.790Z,96470.77
2019-03-01T03:18:28.748Z,96482.20
2019-03-01T03:20:58.888Z,96479.63
2019-03-01T03:23:28.930Z,96479.75
2019-03-01T03:25:59.426Z,96474.91
2019-03-01T03:28:29.452Z,96477.50
2019-03-01T03:30:59.383Z,96477.97
2019-03-01T03:33:29.399Z,96477.97
2019-03-01T03:35:59.663Z,96477.74
2019-03-01T03:38:29.863Z,96479.72
2019-03-01T03:40:59.917Z,96484.57
2019-03-01T03:43:30.048Z,96488.06
2019-03-01T03:45:59.929Z,96491.26
2019-03-01T03:48:30.468Z,96495.25
2019-03-01T03:51:00.982Z,96491.38
2019-03-01T03:53:31.460Z,96495.28
2019-03-01T03:56:01.526Z,96493.05
2019-03-01T03:58:31.693Z,96499.40
2019-03-01T04:01:01.907Z,96502.45
2019-03-01T04:03:31.829Z,96508.47
2019-03-01T04:06:02.103Z,96506.59
2019-03-01T04:08:32.989Z,96512.35
2019-03-01T04:11:03.411Z,96518.12
2019-03-01T04:13:33.433Z,96518.00
2019-03-01T04:16:03.504Z,96519.78
2019-03-01T04:18:33.558Z,96523.54
2019-03-01T04:21:03.494Z,96529.77
2019-03-01T04:23:33.386Z,96529.31
2019-03-01T04:26:04.280Z,96533.22
2019-03-01T04:28:34.220Z,96539.10
2019-03-01T04:31:04.623Z,96542.77
2019-03-01T04:33:34.947Z,96547.24
2019-03-01T04:36:05.128Z,96556.55
2019-03-01T04:38:35.153Z,96556.44
2019-03-01T04:41:05.176Z,96555.36
2019-03-01T04:43:35.195Z,96555.59
2019-03-01T04:46:05.019Z,96557.50
2019-03-01T04:48:35.079Z,96562.69
2019-03-01T04:51:05.172Z,96568.69
2019-03-01T04:53:35.293Z,96568.12
2019-03-01T04:56:05.390Z,96569.88
2019-03-01T04:58:35.477Z,96574.57
2019-03-01T05:01:05.683Z,96575.41
2019-03-01T05:03:36.584Z,96572.10
2019-03-01T05:06:06.555Z,96573.66
2019-03-01T05:08:36.480Z,96574.34
2019-03-01T05:11:06.524Z,96583.67
2019-03-01T05:13:36.653Z,96581.20
2019-03-01T05:16:07.074Z,96583.77
2019-03-01T05:18:37.256Z,96578.13
2019-03-01T05:21:07.656Z,96583.66
2019-03-01T05:23:38.015Z,96582.36
2019-03-01T05:26:07.884Z,96590.14
2019-03-01T05:28:38.482Z,96588.16
2019-03-01T05:31:08.483Z,96587.33
2019-03-01T05:33:38.497Z,96592.14
2019-03-01T05:36:08.725Z,96591.09
2019-03-01T05:38:38.721Z,96594.16
2019-03-01T05:41:08.966Z,96597.70
2019-03-01T05:43:38.913Z,96599.81
2019-03-01T05:46:08.597Z,96600.27
2019-03-01T05:48:39.843Z,96600.63
2019-03-01T05:51:10.518Z,96599.20
2019-03-01T05:53:40.548Z,96611.00
2019-03-01T05:56:11.047Z,96612.41
2019-03-01T05:58:57.465Z,96616.64
2019-03-01T06:01:57.652Z,96617.11
2019-03-01T06:04:37.551Z,96621.95
2019-03-01T06:07:45.526Z,96621.83
2019-03-01T06:10:29.339Z,96629.50
2019-03-01T06:13:29.830Z,96628.89
2019-03-01T06:16:20.127Z,96631.38
2019-03-01T06:19:30.720Z,96640.69
2019-03-01T06:22:41.563Z,96635.77
2019-03-01T06:25:49.543Z,96645.45
2019-03-01T06:28:29.635Z,96647.32
2019-03-01T06:31:39.785Z,96652.16
2019-03-01T06:34:54.089Z,96655.36
2019-03-01T06:37:51.935Z,96660.17
2019-03-01T06:41:21.954Z,96664.33
2019-03-01T06:44:23.307Z,96668.91
2019-03-01T06:47:04.094Z,96676.57
2019-03-01T06:50:09.015Z,96678.34
2019-03-01T06:52:39.567Z,96681.79
2019-03-01T06:55:24.023Z,96688.02
2019-03-01T06:57:54.398Z,96690.97
2019-03-01T07:00:24.868Z,96692.61
2019-03-01T07:02:57.742Z,96690.25
2019-03-01T07:05:28.028Z,96694.02
2019-03-01T07:07:58.265Z,96689.78
2019-03-01T07:10:28.889Z,96694.98
2019-03-01T07:12:59.830Z,96696.13
2019-03-01T07:15:29.624Z,96700.47
2019-03-01T07:18:00.068Z,96700.84
2019-03-01T07:20:30.630Z,96705.67
2019-03-01T07:23:00.540Z,96702.61
2019-03-01T07:25:30.623Z,96703.00
2019-03-01T07:28:00.724Z,96717.51
2019-03-01T07:30:30.870Z,96724.83
2019-03-01T07:33:01.117Z,96725.31
2019-03-01T07:35:32.134Z,96734.27
2019-03-01T07:38:02.636Z,96737.41
2019-03-01T07:40:32.652Z,96734.70
2019-03-01T07:43:02.404Z,96739.41
2019-03-01T07:45:33.300Z,96747.44
2019-03-01T07:48:04.453Z,96749.12
2019-03-01T07:50:34.640Z,96753.73
2019-03-01T07:53:04.870Z,96758.46
2019-03-01T07:55:35.075Z,96763.41
2019-03-01T07:58:05.255Z,96764.91
2019-03-01T08:00:35.417Z,96768.41
2019-03-01T08:03:07.437Z,96776.06
2019-03-01T08:05:39.432Z,96778.22
2019-03-01T08:08:09.501Z,96777.75
2019-03-01T08:10:39.888Z,96786.83
2019-03-01T08:13:10.267Z,96794.74
2019-03-01T08:15:40.892Z,96797.04
2019-03-01T08:18:12.803Z,96799.67
2019-03-01T08:20:43.213Z,96800.19
2019-03-01T08:23:14.433Z,96803.75
2019-03-01T08:25:45.212Z,96804.14
2019-03-01T08:28:18.507Z,96806.50
2019-03-01T08:30:47.413Z,96807.23
2019-03-01T08:33:17.709Z,96814.54
2019-03-01T08:35:47.921Z,96814.77
2019-03-01T08:38:18.228Z,96824.47
2019-03-01T08:40:49.888Z,96827.54
2019-03-01T08:43:20.837Z,96829.53
2019-03-01T08:45:51.827Z,96827.28
2019-03-01T08:48:22.214Z,96837.44
2019-03-01T08:50:53.212Z,96831.52
2019-03-01T08:53:23.371Z,96837.17
2019-03-01T08:55:53.755Z,96837.62
2019-03-01T08:58:23.960Z,96842.48
2019-03-01T09:00:59.631Z,96846.50
2019-03-01T09:03:33.103Z,96847.58
2019-03-01T09:06:03.395Z,96849.94
2019-03-01T09:08:33.894Z,96847.89
2019-03-01T09:11:05.550Z,96847.59
2019-03-01T09:13:36.444Z,96853.02
2019-03-01T09:16:06.493Z,96849.99
2019-03-01T09:18:36.931Z,96851.73
2019-03-01T09:21:12.320Z,96850.48
2019-03-01T09:23:39.701Z,96849.61
2019-03-01T09:26:10.042Z,96855.69
2019-03-01T09:28:40.412Z,96855.48
2019-03-01T09:31:10.432Z,96857.69
2019-03-01T09:33:42.975Z,96862.09
2019-03-01T09:36:21.581Z,96862.26
2019-03-01T09:38:51.654Z,96859.27
2019-03-01T09:41:21.840Z,96863.73
2019-03-01T09:43:52.242Z,96864.23
2019-03-01T09:46:24.802Z,96864.55
2019-03-01T09:48:55.186Z,96868.84
2019-03-01T09:51:25.561Z,96876.77
2019-03-01T09:53:55.952Z,96879.22
2019-03-01T09:56:27.451Z,96873.51
2019-03-01T09:58:57.580Z,96882.44
2019-03-01T10:01:28.557Z,96880.45
2019-03-01T10:03:59.330Z,96881.00
2019-03-01T10:06:37.787Z,96885.78
2019-03-01T10:09:01.506Z,96885.64
2019-03-01T10:11:31.721Z,96884.55
2019-03-01T10:14:01.575Z,96894.61
2019-03-01T10:16:32.141Z,96894.05
2019-03-01T10:19:02.238Z,96893.61
2019-03-01T10:21:32.475Z,96896.38
2019-03-01T10:24:02.545Z,96899.02
2019-03-01T10:26:32.506Z,96904.16
2019-03-01T10:29:02.830Z,96906.49
2019-03-01T10:31:33.694Z,96910.33
2019-03-01T10:34:03.824Z,96906.56
2019-03-01T10:36:34.418Z,96910.33
2019-03-01T10:39:12.739Z,96919.71
2019-03-01T10:41:42.990Z,96918.09
2019-03-01T10:44:13.102Z,96915.58
2019-03-01T10:46:43.302Z,96922.75
2019-03-01T10:49:13.260Z,96928.77
2019-03-01T10:51:43.272Z,96936.02
2019-03-01T10:54:13.267Z,96939.21
2019-03-01T10:56:43.948Z,96930.11
2019-03-01T10:59:14.002Z,96935.09
2019-03-01T11:01:44.094Z,96930.04
2019-03-01T11:04:13.890Z,96942.78
2019-03-01T11:06:43.857Z,96951.43
2019-03-01T11:09:14.017Z,96952.86
2019-03-01T11:11:44.209Z,96951.78
2019-03-01T11:14:14.371Z,96950.94
2019-03-01T11:16:44.485Z,96957.55
2019-03-01T11:19:14.758Z,96953.30
2019-03-01T11:21:45.039Z,96955.20
2019-03-01T11:24:15.164Z,96971.28
2019-03-01T11:26:45.520Z,96965.48
2019-03-01T11:29:15.773Z,96977.95
2019-03-01T11:31:46.004Z,96980.77
2019-03-01T11:34:16.242Z,96987.07
2019-03-01T11:36:46.465Z,96980.42
2019-03-01T11:39:16.969Z,96988.50
2019-03-01T11:41:47.010Z,96976.96
2019-03-01T11:44:17.737Z,96981.14
2019-03-01T11:46:47.827Z,96989.65
2019-03-01T11:49:18.036Z,96983.95
2019-03-01T11:51:48.225Z,96985.75
2019-03-01T11:54:18.449Z,96992.20
2019-03-01T11:56:48.799Z,96999.41
2019-03-01T11:59:18.923Z,96993.03
2019-03-01T12:01:49.204Z,97002.25
2019-03-01T12:04:19.434Z,97008.77
2019-03-01T12:06:49.454Z,97003.20
2019-03-01T12:09:22.574Z,97004.63
2019-03-01T12:11:59.421Z,97013.84
2019-03-01T12:14:30.288Z,97014.89
2019-03-01T12:17:00.536Z,97025.51
2019-03-01T12:19:30.650Z,97029.60
2019-03-01T12:22:16.766Z,97032.80
2019-03-01T12:24:36.279Z,97033.79
2019-03-01T12:27:08.914Z,97045.45
2019-03-01T12:29:41.850Z,97051.94
2019-03-01T12:32:12.445Z,97048.83
2019-03-01T12:34:42.747Z,97047.63
2019-03-01T12:37:12.763Z,97044.55
2019-03-01T12:39:42.823Z,97067.73
2019-03-01T12:42:13.120Z,97070.20
2019-03-01T12:44:43.835Z,97072.23
2019-03-01T12:47:13.733Z,97078.12
2019-03-01T12:49:44.034Z,97080.72
2019-03-01T12:52:14.055Z,97080.72
2019-03-01T12:54:44.561Z,97089.42
2019-03-01T12:57:15.871Z,97092.44
2019-03-01T12:59:45.990Z,97098.83
2019-03-01T13:02:15.904Z,97091.25
2019-03-01T13:04:49.852Z,97099.32
2019-03-01T13:07:19.878Z,97098.48
2019-03-01T13:09:50.575Z,97108.16
2019-03-01T13:12:22.362Z,97106.94
2019-03-01T13:14:52.893Z,97111.32
2019-03-01T13:17:23.448Z,97117.95
2019-03-01T13:19:53.938Z,97116.94
2019-03-01T13:22:24.823Z,97114.34
2019-03-01T13:24:57.104Z,97130.28
2019-03-01T13:27:27.357Z,97115.30
2019-03-01T13:29:58.764Z,97122.77
2019-03-01T13:32:30.335Z,97124.42
2019-03-01T13:35:00.665Z,97130.17
2019-03-01T13:37:31.357Z,97132.80
2019-03-01T13:40:01.456Z,97138.24
2019-03-01T13:42:31.721Z,97134.04
2019-03-01T13:45:01.704Z,97143.27
2019-03-01T13:47:32.029Z,97150.22
2019-03-01T13:50:06.805Z,97154.97
2019-03-01T13:52:57.233Z,97161.51
2019-03-01T13:56:10.676Z,97162.80
2019-03-01T13:59:06.949Z,97171.94
2019-03-01T14:01:52.469Z,97170.63
2019-03-01T14:04:24.524Z,97175.48
2019-03-01T14:07:16.521Z,97183.72
2019-03-01T14:09:47.309Z,97184.61
2019-03-01T14:12:20.797Z,97210.53
2019-03-01T14:14:51.192Z,97212.41
2019-03-01T14:17:26.500Z,97219.87
2019-03-01T14:19:57.753Z,97225.72
2019-03-01T14:22:28.448Z,97230.48
2019-03-01T14:25:02.467Z,97229.66
2019-03-01T14:27:32.364Z,97234.02
2019-03-01T14:30:03.019Z,97241.86
2019-03-01T14:32:33.352Z,97246.11
2019-03-01T14:35:05.268Z,97251.84
2019-03-01T14:37:38.114Z,97250.61
2019-03-01T14:40:10.369Z,97262.62
2019-03-01T14:42:47.457Z,97266.58
2019-03-01T14:45:21.034Z,97280.95
2019-03-01T14:47:52.388Z,97284.52
2019-03-01T14:50:24.051Z,97289.88
2019-03-01T14:52:58.424Z,97296.73
2019-03-01T14:55:36.087Z,97308.81
2019-03-01T14:58:13.380Z,97310.80
2019-03-01T15:00:59.327Z,97320.77
2019-03-01T15:03:34.462Z,97340.32
2019-03-01T15:06:09.343Z,97338.05
2019-03-01T15:08:45.181Z,97352.00
2019-03-01T15:11:19.125Z,97364.27
2019-03-01T15:13:51.309Z,97365.80
2019-03-01T15:16:23.664Z,97368.64
2019-03-01T15:18:55.667Z,97374.13
2019-03-01T15:21:30.445Z,97392.19
2019-03-01T15:24:01.520Z,97390.31
2019-03-01T15:26:35.679Z,97394.13
2019-03-01T15:29:07.278Z,97410.89
2019-03-01T15:31:40.106Z,97418.05
2019-03-01T15:34:12.041Z,97415.88
2019-03-01T15:36:59.455Z,97412.45
2019-03-01T15:39:30.718Z,97431.51
2019-03-01T15:42:03.065Z,97426.13
2019-03-01T15:44:36.631Z,97448.28
2019-03-01T15:47:07.830Z,97453.08
2019-03-01T15:49:38.621Z,97450.33
2019-03-01T15:52:13.675Z,97447.45
2019-03-01T15:54:45.294Z,97460.81
2019-03-01T15:57:21.757Z,97467.87
2019-03-01T15:59:50.874Z,97474.39
2019-03-01T16:02:25.536Z,97469.48
2019-03-01T16:04:57.111Z,97476.13
2019-03-01T16:10:21.965Z,97487.07
2019-03-01T16:12:53.568Z,97491.30
2019-03-01T16:15:24.417Z,97503.95
2019-03-01T16:18:01.116Z,97512.84
2019-03-01T16:20:33.706Z,97509.66
2019-03-01T16:23:27.449Z,97536.86
2019-03-01T16:25:59.374Z,97529.91
2019-03-01T16:28:31.146Z,97518.20
2019-03-01T16:31:02.915Z,97528.64
2019-03-01T16:33:36.616Z,97528.33
2019-03-01T16:36:15.141Z,97551.35
2019-03-01T16:38:48.734Z,97559.48
2019-03-01T16:41:18.184Z,97540.20
2019-03-01T16:43:48.699Z,97549.59
2019-03-01T16:46:19.259Z,97545.61
2019-03-01T16:48:52.279Z,97557.38
2019-03-01T16:51:24.095Z,97562.81
2019-03-01T16:53:57.280Z,97567.02
2019-03-01T16:56:28.764Z,97572.58
2019-03-01T16:59:10.454Z,97574.27
2019-03-01T17:01:41.414Z,97589.66
2019-03-01T17:04:13.023Z,97578.72
2019-03-01T17:06:49.293Z,97597.00
2019-03-01T17:09:19.071Z,97609.09
2019-03-01T17:11:49.342Z,97606.91
2019-03-01T17:14:19.762Z,97614.27
2019-03-01T17:16:59.604Z,97620.44
2019-03-01T17:19:28.921Z,97620.76
2019-03-01T17:21:59.600Z,97626.38
2019-03-01T17:24:30.235Z,97631.74
2019-03-01T17:27:02.068Z,97636.83
2019-03-01T17:29:35.745Z,97643.15
2019-03-01T17:32:05.809Z,97634.36
2019-03-01T17:34:36.463Z,97665.53
2019-03-01T17:37:07.779Z,97654.23
2019-03-01T17:39:38.191Z,97673.56
2019-03-01T17:42:08.280Z,97674.14
2019-03-01T17:44:41.421Z,97657.46
2019-03-01T17:47:10.931Z,97672.98
2019-03-01T17:49:41.097Z,97665.62
2019-03-01T17:52:11.466Z,97668.25
2019-03-01T17:54:41.892Z,97673.15
2019-03-01T17:57:11.800Z,97677.02
2019-03-01T17:59:44.610Z,97690.86
2019-03-01T18:02:15.739Z,97695.91
2019-03-01T18:04:46.086Z,97695.10
2019-03-01T18:07:16.367Z,97697.23
2019-03-01T18:09:47.293Z,97708.46
2019-03-01T18:12:20.590Z,97709.67
2019-03-01T18:14:50.886Z,97713.94
2019-03-01T18:17:21.615Z,97718.46
2019-03-01T18:19:52.611Z,97711.52
2019-03-01T18:22:26.355Z,97719.74
2019-03-01T18:24:55.666Z,97745.52
2019-03-01T18:27:26.157Z,97735.58
2019-03-01T18:29:57.338Z,97729.53
2019-03-01T18:32:27.443Z,97739.89
2019-03-01T18:34:58.293Z,97752.92
2019-03-01T18:37:28.548Z,97752.64
2019-03-01T18:39:58.760Z,97753.16
2019-03-01T18:42:28.949Z,97745.73
2019-03-01T18:44:59.241Z,97772.84
2019-03-01T18:47:30.701Z,97771.90
2019-03-01T18:50:01.845Z,97762.44
2019-03-01T18:52:32.240Z,97761.30
2019-03-01T18:55:03.063Z,97777.77
2019-03-01T18:57:35.461Z,97779.59
2019-03-01T19:00:14.212Z,97779.34
2019-03-01T19:02:45.081Z,97798.84
2019-03-01T19:05:15.586Z,97789.17
2019-03-01T19:07:46.256Z,97794.30
2019-03-01T19:10:16.546Z,97802.38
2019-03-01T19:12:48.608Z,97811.45
2019-03-01T19:15:18.763Z,97804.02
2019-03-01T19:17:49.178Z,97806.27
2019-03-01T19:20:21.519Z,97825.64
2019-03-01T19:22:51.571Z,97821.03
2019-03-01T19:25:25.261Z,97827.61
2019-03-01T19:27:54.818Z,97823.88
2019-03-01T19:30:25.247Z,97820.34
2019-03-01T19:32:55.136Z,97832.48
2019-03-01T19:35:29.783Z,97834.59
2019-03-01T19:37:57.770Z,97856.61
2019-03-01T19:40:28.555Z,97851.37
2019-03-01T19:42:58.968Z,97848.62
2019-03-01T19:45:29.287Z,97849.71
2019-03-01T19:48:03.222Z,97853.70
2019-03-01T19:50:31.831Z,97861.75
2019-03-01T19:53:02.429Z,97864.70
2019-03-01T19:55:32.794Z,97862.98
2019-03-01T19:58:03.608Z,97871.67
2019-03-01T20:00:34.021Z,97878.02
2019-03-01T20:03:06.571Z,97865.18
2019-03-01T20:05:36.471Z,97886.06
2019-03-01T20:08:06.838Z,97882.89
2019-03-01T20:10:37.045Z,97882.50
2019-03-01T20:13:08.105Z,97897.59
2019-03-01T20:15:38.370Z,97898.95
2019-03-01T20:18:09.922Z,97894.50
2019-03-01T20:20:40.727Z,97896.09
2019-03-01T20:23:11.046Z,97905.03
2019-03-01T20:25:41.391Z,97906.95
2019-03-01T20:28:15.211Z,97904.03
2019-03-01T20:30:44.907Z,97904.14
2019-03-01T20:33:15.414Z,97913.08
2019-03-01T20:35:45.422Z,97933.75
2019-03-01T20:38:15.346Z,97916.20
2019-03-01T20:40:45.759Z,97926.73
2019-03-01T20:43:15.822Z,97923.33
2019-03-01T20:45:46.509Z,97930.52
2019-03-01T20:48:16.798Z,97937.95
2019-03-01T20:50:47.595Z,97947.19
2019-03-01T20:53:20.736Z,97942.41
2019-03-01T20:55:51.090Z,97950.67
2019-03-01T20:58:22.197Z,97962.22
2019-03-01T21:00:52.548Z,97963.78
2019-03-01T21:03:24.960Z,97968.95
2019-03-01T21:05:55.875Z,97978.18
2019-03-01T21:08:28.974Z,97971.16
2019-03-01T21:10:58.532Z,97970.77
2019-03-01T21:13:28.465Z,97980.41
2019-03-01T21:15:58.756Z,97984.31
2019-03-01T21:18:30.815Z,97995.22
2019-03-01T21:21:00.844Z,97994.77
2019-03-01T21:23:30.883Z,97995.84
2019-03-01T21:26:00.717Z,98009.45
2019-03-01T21:28:33.736Z,98011.34
2019-03-01T21:31:02.704Z,98007.33
2019-03-01T21:33:32.918Z,98020.28
2019-03-01T21:36:03.603Z,98046.17
2019-03-01T21:38:33.627Z,98023.50
2019-03-01T21:41:06.279Z,98027.19
2019-03-01T21:43:36.868Z,98031.97
2019-03-01T21:46:08.593Z,98049.07
2019-03-01T21:48:38.854Z,98041.25
2019-03-01T21:51:09.511Z,98047.82
2019-03-01T21:53:39.923Z,98049.39
2019-03-01T21:56:11.163Z,98047.11
2019-03-01T21:58:41.991Z,98053.37
2019-03-01T22:01:13.252Z,98062.18
2019-03-01T22:03:43.090Z,98066.36
2019-03-01T22:06:13.127Z,98065.67
2019-03-01T22:08:44.830Z,98076.39
2019-03-01T22:11:15.305Z,98077.73
2019-03-01T22:13:45.289Z,98076.02
2019-03-01T22:16:15.403Z,98090.81
2019-03-01T22:18:45.682Z,98086.17
2019-03-01T22:21:16.551Z,98091.75
2019-03-01T22:23:51.440Z,98108.16
2019-03-01T22:26:20.378Z,98116.50
2019-03-01T22:35:50.298Z,98124.89
2019-03-01T22:38:20.742Z,98133.85
2019-03-01T22:40:50.856Z,98130.39
2019-03-01T22:43:22.505Z,98141.09
2019-03-01T22:45:52.815Z,98140.82
2019-03-01T22:48:23.131Z,98138.66
2019-03-01T22:50:53.249Z,98147.55
2019-03-01T22:53:23.507Z,98145.96
2019-03-01T22:55:53.445Z,98150.20
2019-03-01T22:58:24.208Z,98157.06
2019-03-01T23:01:13.322Z,98176.09
2019-03-01T23:03:51.530Z,98164.03
2019-03-01T23:06:20.633Z,98171.98
2019-03-01T23:08:50.578Z,98178.39
2019-03-01T23:11:20.438Z,98182.75
2019-03-01T23:13:52.696Z,98179.56
2019-03-01T23:16:22.381Z,98180.23
2019-03-01T23:18:56.692Z,98190.41
2019-03-01T23:21:24.818Z,98184.86
2019-03-01T23:23:55.765Z,98194.37
2019-03-01T23:26:26.996Z,98196.84
2019-03-01T23:28:57.194Z,98195.56
2019-03-01T23:31:27.323Z,98203.03
2019-03-01T23:33:57.277Z,98197.83
2019-03-01T23:36:28.535Z,98206.22
2019-03-01T23:38:59.280Z,98207.92
2019-03-01T23:41:29.378Z,98198.19
2019-03-01T23:43:59.202Z,98211.91
2019-03-01T23:46:29.538Z,98215.23
2019-03-01T23:49:05.993Z,98217.44
2019-03-01T23:51:31.387Z,98210.53
2019-03-01T23:54:01.515Z,98212.70
2019-03-01T23:56:31.547Z,98222.08
2019-03-01T23:59:01.703Z,98226.33
